createdAt,value
2022-11-21T00:01:24.952Z,74.60
2022-11-21T00:03:52.663Z,57.60
2022-11-21T00:06:20.385Z,86.20
2022-11-21T00:08:47.635Z,71.00
2022-11-21T00:11:16.187Z,84.60
2022-11-21T00:13:44.040Z,74.80
2022-11-21T00:16:16.678Z,69.60
2022-11-21T00:18:44.551Z,69.10
2022-11-21T00:21:17.328Z,58.50
2022-11-21T00:23:45.671Z,53.00
2022-11-21T00:26:14.015Z,56.00
2022-11-21T00:28:41.827Z,65.80
2022-11-21T00:31:09.088Z,72.40
2022-11-21T00:33:36.955Z,85.30
2022-11-21T00:36:08.929Z,95.10
2022-11-21T00:38:37.071Z,96.40
2022-11-21T00:41:04.647Z,99.90
2022-11-21T00:43:32.042Z,90.10
2022-11-21T00:46:01.417Z,82.00
2022-11-21T00:48:29.935Z,74.10
2022-11-21T00:50:57.201Z,76.10
2022-11-21T00:53:24.308Z,74.60
2022-11-21T00:55:51.506Z,80.40
2022-11-21T00:58:18.832Z,87.00
2022-11-21T01:00:46.120Z,93.60
2022-11-21T01:03:13.394Z,93.20
2022-11-21T01:05:40.582Z,79.80
2022-11-21T01:08:07.926Z,71.70
2022-11-21T01:10:36.061Z,57.30
2022-11-21T01:13:03.597Z,58.50
2022-11-21T01:15:30.788Z,63.20
2022-11-21T01:17:57.911Z,65.80
2022-11-21T01:20:25.046Z,71.40
2022-11-21T01:22:52.331Z,83.20
2022-11-21T01:25:19.457Z,82.60
2022-11-21T01:27:46.568Z,89.60
2022-11-21T01:30:14.715Z,90.00
2022-11-21T01:32:41.831Z,80.80
2022-11-21T01:35:09.236Z,76.50
2022-11-21T01:37:36.339Z,59.10
2022-11-21T01:40:04.175Z,59.10
2022-11-21T01:42:46.974Z,57.50
2022-11-21T01:46:02.307Z,62.70
2022-11-21T01:49:14.778Z,66.50
2022-11-21T01:51:55.535Z,69.40
2022-11-21T01:54:29.472Z,79.70
2022-11-21T01:56:59.865Z,86.00
2022-11-21T01:59:58.977Z,82.70
2022-11-21T02:02:30.682Z,72.50
2022-11-21T02:05:00.197Z,92.80
2022-11-21T02:07:30.592Z,86.40
2022-11-21T02:10:03.099Z,61.60
2022-11-21T02:12:39.535Z,65.80
2022-11-21T02:15:07.375Z,63.70
2022-11-21T02:17:34.498Z,66.20
2022-11-21T02:20:11.066Z,66.20
2022-11-21T02:22:50.512Z,60.20
2022-11-21T02:25:27.522Z,62.50
2022-11-21T02:28:01.461Z,67.10
2022-11-21T02:30:31.749Z,73.10
2022-11-21T02:32:59.218Z,76.60
2022-11-21T02:35:26.903Z,70.50
2022-11-21T02:37:59.622Z,74.90
2022-11-21T02:40:32.363Z,72.30
2022-11-21T02:43:02.001Z,69.20
2022-11-21T02:45:39.274Z,73.40
2022-11-21T02:48:08.221Z,86.10
2022-11-21T02:50:37.544Z,91.20
2022-11-21T02:53:06.425Z,85.20
2022-11-21T02:55:33.691Z,78.60
2022-11-21T02:58:04.867Z,53.10
2022-11-21T03:00:33.866Z,52.00
2022-11-21T03:03:01.394Z,52.80
2022-11-21T03:05:28.925Z,53.20
2022-11-21T03:07:56.075Z,55.10
2022-11-21T03:10:23.198Z,56.20
2022-11-21T03:12:50.350Z,61.90
2022-11-21T03:15:17.681Z,64.10
2022-11-21T03:17:49.714Z,63.10
2022-11-21T03:20:16.886Z,57.80
2022-11-21T03:22:43.997Z,56.50
2022-11-21T03:25:11.164Z,58.40
2022-11-21T03:27:38.251Z,53.30
2022-11-21T03:30:06.006Z,56.00
2022-11-21T03:32:33.198Z,51.00
2022-11-21T03:35:00.317Z,51.20
2022-11-21T03:37:27.494Z,55.20
2022-11-21T03:39:54.718Z,56.90
2022-11-21T03:42:21.885Z,57.30
2022-11-21T03:44:49.014Z,59.70
2022-11-21T03:47:16.136Z,77.80
2022-11-21T03:49:43.219Z,56.80
2022-11-21T03:52:10.404Z,54.20
2022-11-21T03:54:37.577Z,61.70
2022-11-21T03:57:04.736Z,59.70
2022-11-21T03:59:31.845Z,67.10
2022-11-21T04:01:59.038Z,70.50
2022-11-21T04:04:26.509Z,81.80
2022-11-21T04:06:53.864Z,79.80
2022-11-21T04:09:20.975Z,79.00
2022-11-21T04:11:48.245Z,77.60
2022-11-21T04:14:15.369Z,78.70
2022-11-21T04:16:42.506Z,68.70
2022-11-21T04:19:09.606Z,67.40
2022-11-21T04:21:36.754Z,61.60
2022-11-21T04:24:03.999Z,60.40
2022-11-21T04:26:31.758Z,63.10
2022-11-21T04:28:59.020Z,65.50
2022-11-21T04:31:26.174Z,71.90
2022-11-21T04:33:53.326Z,84.70
2022-11-21T04:36:20.530Z,78.00
2022-11-21T04:38:47.937Z,74.00
2022-11-21T04:41:15.146Z,75.80
2022-11-21T04:43:42.277Z,77.90
2022-11-21T04:46:09.451Z,92.90
2022-11-21T04:48:36.599Z,73.10
2022-11-21T04:51:03.841Z,79.20
2022-11-21T04:53:31.134Z,46.40
2022-11-21T04:55:58.421Z,49.20
2022-11-21T04:58:25.602Z,50.10
2022-11-21T05:00:52.765Z,51.70
2022-11-21T05:03:19.992Z,51.00
2022-11-21T05:05:47.659Z,52.70
2022-11-21T05:08:14.938Z,54.80
2022-11-21T05:11:02.332Z,77.10
2022-11-21T05:13:29.421Z,58.60
2022-11-21T05:15:57.695Z,59.50
2022-11-21T05:18:25.286Z,56.10
2022-11-21T05:20:52.447Z,51.60
2022-11-21T05:23:19.594Z,46.30
2022-11-21T05:25:46.779Z,45.30
2022-11-21T05:28:13.895Z,48.10
2022-11-21T05:30:41.102Z,49.30
2022-11-21T05:33:08.277Z,56.20
2022-11-21T05:35:40.144Z,61.50
2022-11-21T05:38:09.958Z,67.10
2022-11-21T05:40:37.169Z,73.90
2022-11-21T05:43:22.775Z,82.30
2022-11-21T05:45:50.817Z,96.90
2022-11-21T05:48:18.544Z,92.50
2022-11-21T05:50:49.646Z,93.00
2022-11-21T05:53:17.650Z,92.90
2022-11-21T05:55:45.128Z,91.20
2022-11-21T05:58:12.648Z,85.60
2022-11-21T06:00:40.113Z,81.70
2022-11-21T06:03:27.153Z,77.60
2022-11-21T06:06:17.673Z,76.60
2022-11-21T06:08:47.434Z,81.80
2022-11-21T06:11:16.747Z,71.70
2022-11-21T06:13:44.866Z,55.70
2022-11-21T06:16:15.025Z,59.70
2022-11-21T06:18:44.351Z,69.90
2022-11-21T06:21:20.404Z,80.20
2022-11-21T06:23:50.244Z,86.00
2022-11-21T06:26:20.138Z,85.90
2022-11-21T06:28:47.994Z,83.50
2022-11-21T06:31:18.125Z,78.70
2022-11-21T06:33:46.049Z,73.00
2022-11-21T06:36:15.801Z,71.00
2022-11-21T06:38:44.413Z,70.00
2022-11-21T06:41:14.142Z,66.90
2022-11-21T06:43:41.946Z,63.90
2022-11-21T06:46:10.001Z,69.90
2022-11-21T06:48:38.082Z,74.10
2022-11-21T06:51:24.862Z,70.50
2022-11-21T06:53:57.427Z,67.50
2022-11-21T06:56:25.921Z,68.20
2022-11-21T06:58:53.450Z,68.00
2022-11-21T07:01:20.738Z,66.40
2022-11-21T07:03:47.870Z,67.60
2022-11-21T07:06:15.326Z,68.40
2022-11-21T07:08:42.494Z,69.00
2022-11-21T07:11:29.813Z,70.40
2022-11-21T07:13:56.994Z,71.30
2022-11-21T07:16:26.364Z,68.60
2022-11-21T07:18:53.731Z,72.70
2022-11-21T07:21:20.921Z,75.50
2022-11-21T07:23:48.718Z,76.60
2022-11-21T07:26:15.943Z,74.50
2022-11-21T07:28:43.405Z,74.70
2022-11-21T07:31:13.956Z,70.60
2022-11-21T07:33:43.674Z,88.00
2022-11-21T07:36:11.980Z,57.00
2022-11-21T07:38:40.921Z,56.40
2022-11-21T07:41:08.199Z,48.90
2022-11-21T07:43:35.363Z,40.20
2022-11-21T07:46:02.477Z,44.90
2022-11-21T07:48:29.677Z,44.80
2022-11-21T07:50:56.789Z,40.60
2022-11-21T07:53:24.578Z,38.20
2022-11-21T07:55:51.751Z,36.80
2022-11-21T07:58:19.146Z,40.80
2022-11-21T08:00:46.359Z,42.70
2022-11-21T08:03:14.054Z,46.80
2022-11-21T08:05:42.972Z,46.80
2022-11-21T08:08:12.157Z,46.60
2022-11-21T08:10:42.115Z,41.80
2022-11-21T08:13:09.673Z,37.40
2022-11-21T08:15:36.998Z,36.30
2022-11-21T08:18:19.284Z,34.40
2022-11-21T08:21:05.498Z,36.30
2022-11-21T08:23:32.986Z,36.30
2022-11-21T08:26:00.379Z,39.20
2022-11-21T08:28:27.815Z,42.80
2022-11-21T08:30:55.236Z,40.90
2022-11-21T08:33:23.060Z,38.30
2022-11-21T08:35:50.200Z,38.40
2022-11-21T08:38:17.380Z,40.00
2022-11-21T08:40:44.555Z,38.70
2022-11-21T08:43:11.787Z,32.00
2022-11-21T08:45:39.807Z,33.90
2022-11-21T08:48:11.838Z,42.10
2022-11-21T08:50:57.947Z,38.20
2022-11-21T08:53:25.210Z,39.30
2022-11-21T08:56:10.947Z,38.70
2022-11-21T08:58:38.182Z,30.30
2022-11-21T09:01:05.349Z,30.60
2022-11-21T09:03:32.942Z,27.80
2022-11-21T09:06:00.859Z,26.50
2022-11-21T09:08:30.286Z,24.70
2022-11-21T09:11:15.646Z,25.40
2022-11-21T09:13:42.830Z,25.60
2022-11-21T09:16:30.404Z,27.10
2022-11-21T09:18:57.620Z,22.30
2022-11-21T09:21:24.754Z,22.80
2022-11-21T09:23:51.862Z,23.20
2022-11-21T09:26:19.029Z,21.90
2022-11-21T09:28:47.059Z,20.10
2022-11-21T09:31:14.422Z,19.00
2022-11-21T09:33:41.585Z,19.40
2022-11-21T09:36:08.826Z,16.90
2022-11-21T09:38:35.968Z,17.50
2022-11-21T09:41:54.578Z,16.40
2022-11-21T09:44:50.193Z,17.50
2022-11-21T09:47:32.963Z,17.10
2022-11-21T09:50:07.430Z,17.30
2022-11-21T09:52:42.268Z,15.00
2022-11-21T09:55:25.108Z,16.10
2022-11-21T09:57:52.285Z,16.20
2022-11-21T10:00:24.988Z,14.80
2022-11-21T10:02:52.920Z,15.00
2022-11-21T10:05:41.277Z,15.60
2022-11-21T10:08:39.658Z,13.20
2022-11-21T10:12:03.426Z,14.50
2022-11-21T10:14:48.131Z,14.40
2022-11-21T10:17:37.043Z,14.30
2022-11-21T10:20:16.225Z,14.00
2022-11-21T10:23:17.352Z,14.00
2022-11-21T10:25:55.173Z,12.90
2022-11-21T10:28:38.755Z,13.70
2022-11-21T10:31:11.648Z,12.00
2022-11-21T10:33:40.592Z,11.00
2022-11-21T10:36:22.214Z,11.60
2022-11-21T10:38:50.385Z,11.40
2022-11-21T10:41:25.306Z,10.10
2022-11-21T10:44:20.360Z,9.30
2022-11-21T10:47:01.705Z,9.10
2022-11-21T10:49:34.008Z,10.30
2022-11-21T10:52:17.518Z,9.30
2022-11-21T10:55:03.114Z,8.30
2022-11-21T10:57:37.947Z,8.70
2022-11-21T11:00:16.818Z,10.80
2022-11-21T11:03:04.855Z,9.50
2022-11-21T11:05:41.558Z,10.70
2022-11-21T11:08:11.548Z,8.30
2022-11-21T11:11:01.613Z,8.40
2022-11-21T11:13:46.502Z,9.10
2022-11-21T11:16:21.419Z,9.70
2022-11-21T11:19:03.228Z,8.70
2022-11-21T11:21:44.202Z,8.80
2022-11-21T11:24:11.343Z,9.20
2022-11-21T11:26:48.656Z,10.00
2022-11-21T11:29:17.246Z,9.80
2022-11-21T11:32:22.842Z,9.20
2022-11-21T11:35:00.421Z,8.80
2022-11-21T11:37:41.091Z,9.10
2022-11-21T11:40:17.766Z,9.40
2022-11-21T11:43:25.490Z,10.20
2022-11-21T11:46:44.966Z,9.50
2022-11-21T11:49:59.775Z,10.30
2022-11-21T11:52:33.182Z,10.20
2022-11-21T11:55:05.227Z,10.80
2022-11-21T11:57:35.689Z,10.00
2022-11-21T12:00:36.278Z,24.20
2022-11-21T12:03:18.799Z,7.50
2022-11-21T12:06:02.444Z,7.80
2022-11-21T12:08:42.660Z,6.90
2022-11-21T12:12:06.298Z,7.30
2022-11-21T12:14:56.021Z,7.10
2022-11-21T12:17:33.865Z,6.10
2022-11-21T12:20:05.449Z,5.10
2022-11-21T12:22:32.659Z,5.60
2022-11-21T12:24:59.794Z,5.20
2022-11-21T12:27:34.005Z,4.70
2022-11-21T12:30:21.743Z,4.30
2022-11-21T12:33:08.848Z,4.30
2022-11-21T12:36:17.422Z,4.80
2022-11-21T12:39:00.396Z,5.20
2022-11-21T12:42:17.971Z,5.60
2022-11-21T12:44:57.373Z,6.20
2022-11-21T12:48:27.839Z,6.30
2022-11-21T12:51:41.433Z,6.50
2022-11-21T12:54:33.537Z,6.50
2022-11-21T12:57:18.481Z,6.70
2022-11-21T13:00:00.770Z,6.00
2022-11-21T13:03:18.858Z,5.30
2022-11-21T13:05:49.838Z,5.50
2022-11-21T13:08:24.687Z,6.20
2022-11-21T13:11:51.053Z,5.90
2022-11-21T13:14:40.191Z,5.00
2022-11-21T13:17:15.638Z,5.10
2022-11-21T13:19:52.308Z,3.80
2022-11-21T13:22:38.124Z,3.00
2022-11-21T13:25:13.055Z,4.30
2022-11-21T13:27:42.176Z,4.20
2022-11-21T13:30:12.160Z,3.40
2022-11-21T13:32:44.201Z,3.50
2022-11-21T13:35:20.560Z,3.00
2022-11-21T13:38:03.811Z,3.90
2022-11-21T13:40:30.903Z,1.70
2022-11-21T13:45:59.458Z,2.60
2022-11-21T13:48:34.581Z,3.20
2022-11-21T13:51:30.720Z,2.20
2022-11-21T13:54:34.756Z,1.50
2022-11-21T13:57:47.412Z,1.00
2022-11-21T14:00:24.798Z,1.00
2022-11-21T14:03:24.458Z,1.00
2022-11-21T14:06:10.487Z,1.00
2022-11-21T14:08:37.897Z,1.00
2022-11-21T14:11:30.252Z,1.00
2022-11-21T14:13:57.464Z,1.00
2022-11-21T14:16:36.911Z,1.00
2022-11-21T14:19:05.377Z,1.00
2022-11-21T14:21:34.112Z,1.00
2022-11-21T14:24:13.496Z,1.00
2022-11-21T14:26:47.226Z,1.00
2022-11-21T14:29:27.562Z,1.00
2022-11-21T14:31:55.860Z,1.00
2022-11-21T14:34:28.978Z,1.00
2022-11-21T14:37:04.578Z,1.00
2022-11-21T14:39:38.119Z,1.00
2022-11-21T14:42:15.900Z,1.00
2022-11-21T14:44:43.939Z,2.90
2022-11-21T14:47:25.656Z,1.00
2022-11-21T14:49:55.327Z,1.00
2022-11-21T14:52:29.382Z,1.00
2022-11-21T14:57:46.426Z,1.00
2022-11-21T15:00:51.607Z,1.00
2022-11-21T15:03:21.928Z,1.00
2022-11-21T15:06:08.002Z,1.00
2022-11-21T15:11:51.441Z,1.00
2022-11-21T15:14:18.581Z,1.00
2022-11-21T15:16:50.056Z,1.00
2022-11-21T15:19:21.797Z,1.00
2022-11-21T15:21:51.476Z,1.00
2022-11-21T15:24:43.916Z,1.00
2022-11-21T15:27:24.515Z,1.00
2022-11-21T15:30:10.302Z,1.00
2022-11-21T15:33:07.157Z,1.00
2022-11-21T15:35:54.234Z,1.00
2022-11-21T15:38:27.809Z,1.00
2022-11-21T15:41:00.170Z,1.00
2022-11-21T15:43:42.452Z,1.00
2022-11-21T15:46:24.624Z,1.00
2022-11-21T15:48:57.382Z,1.00
2022-11-21T15:51:59.671Z,1.00
2022-11-21T15:54:22.167Z,1.00
2022-11-21T15:56:49.501Z,1.00
2022-11-21T15:59:17.442Z,1.00
2022-11-21T16:01:44.769Z,1.00
2022-11-21T16:04:12.713Z,1.00
2022-11-21T16:06:40.158Z,1.00
2022-11-21T16:09:07.391Z,1.00
2022-11-21T16:11:40.787Z,1.00
2022-11-21T16:14:09.051Z,1.00
2022-11-21T16:16:43.253Z,1.00
2022-11-21T16:19:15.124Z,1.00
2022-11-21T16:21:42.728Z,1.00
2022-11-21T16:24:09.962Z,1.00
2022-11-21T16:26:37.204Z,1.00
2022-11-21T16:29:05.738Z,1.00
2022-11-21T16:31:33.849Z,1.00
2022-11-21T16:34:01.301Z,1.00
2022-11-21T16:36:29.913Z,1.00
2022-11-21T16:39:01.750Z,1.00
2022-11-21T16:41:30.754Z,1.00
2022-11-21T16:43:58.683Z,1.00
2022-11-21T16:46:26.080Z,1.00
2022-11-21T16:49:01.597Z,1.00
2022-11-21T16:51:29.700Z,1.00
2022-11-21T16:54:00.700Z,1.00
2022-11-21T16:56:30.254Z,1.00
2022-11-21T16:58:57.388Z,1.00
2022-11-21T17:01:26.271Z,1.00
2022-11-21T17:03:54.070Z,1.00
2022-11-21T17:06:24.476Z,1.00
2022-11-21T17:08:51.605Z,1.00
2022-11-21T17:11:26.446Z,1.00
2022-11-21T17:13:53.751Z,1.00
2022-11-21T17:16:22.220Z,1.00
2022-11-21T17:18:54.060Z,1.00
2022-11-21T17:21:21.939Z,1.00
2022-11-21T17:23:49.611Z,1.00
2022-11-21T17:26:19.506Z,1.00
2022-11-21T17:29:01.031Z,1.00
2022-11-21T17:31:28.645Z,1.00
2022-11-21T17:33:57.356Z,1.00
2022-11-21T17:36:27.166Z,1.90
2022-11-21T17:38:55.076Z,4.70
2022-11-21T17:41:24.059Z,6.80
2022-11-21T17:43:55.517Z,7.90
2022-11-21T17:46:25.308Z,7.10
2022-11-21T17:48:57.210Z,7.00
2022-11-21T17:51:28.850Z,8.10
2022-11-21T17:53:56.495Z,6.60
2022-11-21T17:56:26.311Z,5.10
2022-11-21T17:58:53.802Z,3.50
2022-11-21T18:01:22.158Z,1.00
2022-11-21T18:03:54.236Z,2.20
2022-11-21T18:06:21.404Z,4.60
2022-11-21T18:08:49.549Z,7.50
2022-11-21T18:11:23.838Z,6.20
2022-11-21T18:13:51.293Z,7.50
2022-11-21T18:16:20.799Z,7.00
2022-11-21T18:18:49.814Z,4.40
2022-11-21T18:21:19.771Z,3.40
2022-11-21T18:23:47.279Z,2.70
2022-11-21T18:26:23.970Z,2.70
2022-11-21T18:29:13.378Z,1.40
2022-11-21T18:31:43.035Z,4.50
2022-11-21T18:34:12.089Z,4.10
2022-11-21T18:36:39.397Z,5.90
2022-11-21T18:39:14.179Z,9.10
2022-11-21T18:41:42.782Z,7.60
2022-11-21T18:44:10.363Z,7.10
2022-11-21T18:46:40.847Z,7.90
2022-11-21T18:49:08.588Z,11.40
2022-11-21T18:51:36.752Z,14.50
2022-11-21T18:54:11.054Z,15.40
2022-11-21T18:56:39.593Z,16.50
2022-11-21T18:59:07.192Z,15.50
2022-11-21T19:01:36.574Z,13.10
2022-11-21T19:04:04.065Z,12.10
2022-11-21T19:06:31.717Z,11.30
2022-11-21T19:08:59.202Z,10.60
2022-11-21T19:11:28.752Z,9.00
2022-11-21T19:13:57.240Z,8.90
2022-11-21T19:16:26.376Z,9.50
2022-11-21T19:21:42.649Z,9.20
2022-11-21T19:24:14.328Z,10.60
2022-11-21T19:26:42.307Z,10.70
2022-11-21T19:29:10.459Z,8.50
2022-11-21T19:31:43.007Z,6.00
2022-11-21T19:34:12.231Z,6.80
2022-11-21T19:36:39.589Z,7.60
2022-11-21T19:39:06.871Z,7.30
2022-11-21T19:41:34.127Z,7.20
2022-11-21T19:44:02.259Z,7.50
2022-11-21T19:46:32.666Z,8.10
2022-11-21T19:49:00.125Z,8.70
2022-11-21T19:51:36.116Z,7.80
2022-11-21T19:54:07.255Z,3.30
2022-11-21T19:56:35.066Z,5.70
2022-11-21T19:59:02.257Z,5.50
2022-11-21T20:01:31.454Z,7.30
2022-11-21T20:04:04.207Z,8.10
2022-11-21T20:06:36.860Z,10.70
2022-11-21T20:09:11.537Z,12.00
2022-11-21T20:11:40.649Z,15.00
2022-11-21T20:14:08.318Z,18.20
2022-11-21T20:16:38.778Z,21.90
2022-11-21T20:19:11.706Z,20.60
2022-11-21T20:21:39.553Z,18.10
2022-11-21T20:24:07.750Z,16.30
2022-11-21T20:26:36.230Z,12.50
2022-11-21T20:29:04.732Z,12.80
2022-11-21T20:31:34.403Z,12.20
2022-11-21T20:34:04.541Z,11.70
2022-11-21T20:36:33.971Z,12.70
2022-11-21T20:39:07.245Z,14.10
2022-11-21T20:41:36.503Z,14.40
2022-11-21T20:46:53.878Z,12.50
2022-11-21T20:49:21.148Z,16.60
2022-11-21T20:54:36.787Z,19.10
2022-11-21T20:57:04.018Z,18.10
2022-11-21T20:59:31.498Z,14.30
2022-11-21T21:01:58.985Z,15.60
2022-11-21T21:04:26.257Z,18.20
2022-11-21T21:06:53.586Z,17.30
2022-11-21T21:09:20.711Z,18.00
2022-11-21T21:11:53.048Z,17.30
2022-11-21T21:14:23.638Z,16.80
2022-11-21T21:16:50.848Z,18.00
2022-11-21T21:19:18.613Z,19.70
2022-11-21T21:21:45.859Z,17.80
2022-11-21T21:24:13.778Z,17.90
2022-11-21T21:26:46.625Z,21.80
2022-11-21T21:29:18.262Z,17.10
2022-11-21T21:31:50.939Z,15.00
2022-11-21T21:34:19.823Z,15.80
2022-11-21T21:36:47.225Z,13.00
2022-11-21T21:39:14.731Z,13.60
2022-11-21T21:41:46.009Z,18.50
2022-11-21T21:44:14.169Z,18.50
2022-11-21T21:46:41.624Z,22.10
2022-11-21T21:49:08.997Z,23.50
2022-11-21T21:51:40.093Z,15.30
2022-11-21T21:54:13.412Z,12.90
2022-11-21T21:56:40.534Z,15.50
2022-11-21T21:59:07.734Z,33.40
2022-11-21T22:01:34.911Z,16.40
2022-11-21T22:04:04.175Z,31.10
2022-11-21T22:06:33.880Z,19.50
2022-11-21T22:09:01.502Z,15.50
2022-11-21T22:11:31.646Z,15.70
2022-11-21T22:14:00.088Z,19.60
2022-11-21T22:16:27.918Z,17.50
2022-11-21T22:18:55.709Z,23.60
2022-11-21T22:21:28.611Z,25.80
2022-11-21T22:24:23.449Z,39.50
2022-11-21T22:26:45.170Z,41.10
2022-11-21T22:29:12.322Z,38.90
2022-11-21T22:31:39.621Z,38.20
2022-11-21T22:34:06.788Z,34.20
2022-11-21T22:36:33.846Z,38.10
2022-11-21T22:39:00.967Z,32.50
2022-11-21T22:41:28.329Z,33.30
2022-11-21T22:43:58.543Z,27.70
2022-11-21T22:46:27.421Z,29.60
2022-11-21T22:48:55.388Z,44.40
2022-11-21T22:51:29.469Z,21.80
2022-11-21T22:53:57.675Z,22.90
2022-11-21T22:56:25.596Z,25.40
2022-11-21T22:58:53.188Z,26.70
2022-11-21T23:01:25.268Z,28.40
2022-11-21T23:03:53.111Z,33.20
2022-11-21T23:06:23.840Z,34.20
2022-11-21T23:08:55.492Z,34.80
2022-11-21T23:11:26.127Z,33.10
2022-11-21T23:13:54.282Z,34.10
2022-11-21T23:16:21.518Z,29.30
2022-11-21T23:18:51.324Z,29.50
2022-11-21T23:21:18.794Z,28.10
2022-11-21T23:23:45.923Z,26.70
2022-11-21T23:26:13.806Z,28.40
2022-11-21T23:28:41.089Z,28.60
2022-11-21T23:31:09.381Z,30.00
2022-11-21T23:33:36.566Z,29.80
2022-11-21T23:36:03.806Z,30.80
2022-11-21T23:38:30.973Z,33.70
2022-11-21T23:40:58.130Z,32.80
2022-11-21T23:43:25.402Z,34.20
2022-11-21T23:45:54.155Z,31.90
2022-11-21T23:48:22.072Z,31.70
2022-11-21T23:50:51.312Z,29.30
2022-11-21T23:53:19.522Z,24.90
2022-11-21T23:55:47.503Z,22.70
2022-11-21T23:58:15.396Z,21.60
